Terminal Aerodrome Forecast
Issued by NWS Melbourne, FL

Current Version | Previous Version | Text Only | Print | Product List | Glossary On
Versions: 1 2 3 4 5 6 7 8 9 10 11 12 13 14
000
FTUS42 KMLB 301139
TAFMLB
TAF
KMLB 301139Z 3012/3112 11010KT P6SM VCSH FEW015 SCT070 SCT250
      TEMPO 3012/3015 3SM SHRA BKN015 BKN030
     FM301800 15013KT P6SM -RA VCTS SCT025CB BKN050 BKN150
     FM310000 16009KT P6SM VCSH FEW020 SCT050 BKN150=

USA.gov is the U.S. government's official web portal to all federal, state and local government web resources and services.